PRMFG SAWH-SCRM
Flight info
| Callsign | PRMFG |
|---|---|
| Flight time | N/A |
| Altitude | 33000 |
| Route | D093N DCT KRILL DCT PAMES DCT VUDOR |
| Aircraft | MD83/M-SDFGIRWY/S |
Departure
| Time | 2026-05-06 22:20 |
|---|---|
| Airport | Ushuaia - Malvinas Argentinas International Airport (SAWH) |
Arrival
| Time | N/A |
|---|---|
| Airport | Teniente Rodolfo Marsh Martin Airport (SCRM) |
| Time | Latitude | Longitude | Altitude | Speed | Heading |
|---|---|---|---|---|---|
| 2026-05-06 21:54 | -54.84052 | -68.31033 | 86 ft | 0 kts | 179° |
| 2026-05-06 22:08 | -54.84054 | -68.31033 | 85 ft | 2 kts | 179° |
| 2026-05-06 22:09 | -54.84060 | -68.31033 | 85 ft | 0 kts | 179° |
| 2026-05-06 22:09 | -54.84079 | -68.31031 | 86 ft | 7 kts | 176° |
| 2026-05-06 22:09 | -54.84131 | -68.30983 | 86 ft | 10 kts | 152° |
| 2026-05-06 22:09 | -54.84161 | -68.30973 | 85 ft | 0 kts | 181° |
| 2026-05-06 22:10 | -54.84163 | -68.30973 | 85 ft | 0 kts | 181° |
| 2026-05-06 22:11 | -54.84164 | -68.30973 | 88 ft | 1 kts | 181° |
| 2026-05-06 22:11 | -54.84199 | -68.30974 | 87 ft | 10 kts | 179° |
| 2026-05-06 22:12 | -54.84297 | -68.30966 | 86 ft | 18 kts | 177° |
| 2026-05-06 22:12 | -54.84392 | -68.30911 | 86 ft | 9 kts | 133° |
| 2026-05-06 22:12 | -54.84401 | -68.30844 | 85 ft | 8 kts | 86° |
| 2026-05-06 22:12 | -54.84390 | -68.30647 | 83 ft | 25 kts | 84° |
| 2026-05-06 22:13 | -54.84367 | -68.30230 | 82 ft | 44 kts | 84° |
| 2026-05-06 22:13 | -54.84330 | -68.29584 | 82 ft | 63 kts | 84° |
| 2026-05-06 22:13 | -54.84287 | -68.28697 | 75 ft | 84 kts | 86° |
| 2026-05-06 22:13 | -54.84252 | -68.27813 | 69 ft | 56 kts | 83° |
| 2026-05-06 22:14 | -54.84198 | -68.27332 | 74 ft | 29 kts | 82° |
| 2026-05-06 22:14 | -54.84242 | -68.27266 | 74 ft | 0 kts | 268° |
| 2026-05-06 22:16 | -54.84242 | -68.27269 | 74 ft | 3 kts | 266° |
| 2026-05-06 22:17 | -54.84249 | -68.27435 | 76 ft | 26 kts | 265° |
| 2026-05-06 22:17 | -54.84269 | -68.27912 | 70 ft | 54 kts | 266° |
| 2026-05-06 22:17 | -54.84303 | -68.28745 | 71 ft | 84 kts | 266° |
| 2026-05-06 22:17 | -54.84348 | -68.29892 | 82 ft | 106 kts | 266° |
| 2026-05-06 22:18 | -54.84402 | -68.31260 | 88 ft | 120 kts | 266° |
| 2026-05-06 22:18 | -54.84416 | -68.31884 | 88 ft | 0 kts | 88° |
| 2026-05-06 22:18 | -54.84414 | -68.31794 | 87 ft | 18 kts | 87° |
| 2026-05-06 22:18 | -54.84404 | -68.31422 | 88 ft | 44 kts | 86° |
| 2026-05-06 22:19 | -54.84376 | -68.30710 | 85 ft | 75 kts | 86° |
| 2026-05-06 22:19 | -54.84332 | -68.29641 | 82 ft | 102 kts | 86° |
| 2026-05-06 22:19 | -54.84278 | -68.28281 | 71 ft | 122 kts | 86° |
| 2026-05-06 22:19 | -54.84232 | -68.27168 | 140 ft | 97 kts | 86° |
| 2026-05-06 22:20 | -54.84181 | -68.25559 | 588 ft | 102 kts | 86° |
| 2026-05-06 22:20 | -54.84167 | -68.24692 | 87 ft | 0 kts | 91° |
| 2026-05-06 22:20 | -54.84167 | -68.24662 | 78 ft | 55 kts | 91° |
| 2026-05-06 22:20 | -54.83844 | -68.23395 | 1310 ft | 63 kts | 114° |